sensor_id;sensor_type;location;lat;lon;timestamp;temperature;humidity
1880;DHT22;49285;49.002;8.390;2024-03-06T00:01:16;8.40;99.90
1880;DHT22;49285;49.002;8.390;2024-03-06T00:03:42;8.50;99.90
1880;DHT22;49285;49.002;8.390;2024-03-06T00:06:07;8.40;99.90
1880;DHT22;49285;49.002;8.390;2024-03-06T00:08:34;8.50;99.90
1880;DHT22;49285;49.002;8.390;2024-03-06T00:10:59;8.40;99.90
1880;DHT22;49285;49.002;8.390;2024-03-06T00:13:25;8.50;99.90
1880;DHT22;49285;49.002;8.390;2024-03-06T00:15:50;8.50;99.90
1880;DHT22;49285;49.002;8.390;2024-03-06T00:18:16;8.50;99.90
1880;DHT22;49285;49.002;8.390;2024-03-06T00:20:41;8.60;99.90
1880;DHT22;49285;49.002;8.390;2024-03-06T00:23:08;8.50;99.90
1880;DHT22;49285;49.002;8.390;2024-03-06T00:25:33;8.60;99.90
1880;DHT22;49285;49.002;8.390;2024-03-06T00:28:00;8.60;99.90
1880;DHT22;49285;49.002;8.390;2024-03-06T00:30:25;8.60;99.90
1880;DHT22;49285;49.002;8.390;2024-03-06T00:32:51;8.60;99.90
1880;DHT22;49285;49.002;8.390;2024-03-06T00:35:17;8.60;99.90
1880;DHT22;49285;49.002;8.390;2024-03-06T00:37:42;8.60;99.90
1880;DHT22;49285;49.002;8.390;2024-03-06T00:40:08;8.70;99.90
1880;DHT22;49285;49.002;8.390;2024-03-06T00:42:34;8.60;99.90
1880;DHT22;49285;49.002;8.390;2024-03-06T00:45:00;8.70;99.90
1880;DHT22;49285;49.002;8.390;2024-03-06T00:47:27;8.70;99.90
1880;DHT22;49285;49.002;8.390;2024-03-06T00:49:53;8.70;99.90
1880;DHT22;49285;49.002;8.390;2024-03-06T00:52:18;8.80;99.90
1880;DHT22;49285;49.002;8.390;2024-03-06T00:54:44;8.80;99.90
1880;DHT22;49285;49.002;8.390;2024-03-06T00:57:10;8.80;99.90
1880;DHT22;49285;49.002;8.390;2024-03-06T00:59:36;8.80;99.90
1880;DHT22;49285;49.002;8.390;2024-03-06T01:02:01;8.80;99.90
1880;DHT22;49285;49.002;8.390;2024-03-06T01:04:27;8.80;99.90
1880;DHT22;49285;49.002;8.390;2024-03-06T01:06:52;8.90;99.90
1880;DHT22;49285;49.002;8.390;2024-03-06T01:09:18;8.80;99.90
1880;DHT22;49285;49.002;8.390;2024-03-06T01:11:43;8.80;99.90
1880;DHT22;49285;49.002;8.390;2024-03-06T01:14:12;8.80;99.90
1880;DHT22;49285;49.002;8.390;2024-03-06T01:16:37;8.80;99.90
1880;DHT22;49285;49.002;8.390;2024-03-06T01:19:03;8.80;99.90
1880;DHT22;49285;49.002;8.390;2024-03-06T01:21:28;8.80;99.90
1880;DHT22;49285;49.002;8.390;2024-03-06T01:23:54;8.60;99.90
1880;DHT22;49285;49.002;8.390;2024-03-06T01:26:20;8.50;99.90
1880;DHT22;49285;49.002;8.390;2024-03-06T01:28:46;8.40;99.90
1880;DHT22;49285;49.002;8.390;2024-03-06T01:31:11;8.40;99.90
1880;DHT22;49285;49.002;8.390;2024-03-06T01:33:37;8.50;99.90
1880;DHT22;49285;49.002;8.390;2024-03-06T01:36:03;8.40;99.90
1880;DHT22;49285;49.002;8.390;2024-03-06T01:38:29;8.50;99.90
1880;DHT22;49285;49.002;8.390;2024-03-06T01:40:55;8.40;99.90
1880;DHT22;49285;49.002;8.390;2024-03-06T01:43:22;8.50;99.90
1880;DHT22;49285;49.002;8.390;2024-03-06T01:45:51;8.40;99.90
1880;DHT22;49285;49.002;8.390;2024-03-06T01:48:23;8.40;99.90
1880;DHT22;49285;49.002;8.390;2024-03-06T01:50:55;8.30;99.90
1880;DHT22;49285;49.002;8.390;2024-03-06T01:53:22;8.40;99.90
1880;DHT22;49285;49.002;8.390;2024-03-06T01:55:49;8.40;99.90
1880;DHT22;49285;49.002;8.390;2024-03-06T01:58:16;8.40;99.90
1880;DHT22;49285;49.002;8.390;2024-03-06T02:00:43;8.40;99.90
1880;DHT22;49285;49.002;8.390;2024-03-06T02:03:09;8.40;99.90
1880;DHT22;49285;49.002;8.390;2024-03-06T02:05:35;8.40;99.90
1880;DHT22;49285;49.002;8.390;2024-03-06T02:08:00;8.40;99.90
1880;DHT22;49285;49.002;8.390;2024-03-06T02:10:27;8.40;99.90
1880;DHT22;49285;49.002;8.390;2024-03-06T02:12:53;8.40;99.90
1880;DHT22;49285;49.002;8.390;2024-03-06T02:15:19;8.40;99.90
1880;DHT22;49285;49.002;8.390;2024-03-06T02:17:45;8.40;99.90
1880;DHT22;49285;49.002;8.390;2024-03-06T02:20:11;8.50;99.90
1880;DHT22;49285;49.002;8.390;2024-03-06T02:22:42;8.50;99.90
1880;DHT22;49285;49.002;8.390;2024-03-06T02:25:08;8.50;99.90
1880;DHT22;49285;49.002;8.390;2024-03-06T02:27:34;8.50;99.90
1880;DHT22;49285;49.002;8.390;2024-03-06T02:30:00;8.50;99.90
1880;DHT22;49285;49.002;8.390;2024-03-06T02:32:25;8.50;99.90
1880;DHT22;49285;49.002;8.390;2024-03-06T02:34:51;8.60;99.90
1880;DHT22;49285;49.002;8.390;2024-03-06T02:37:17;8.50;99.90
1880;DHT22;49285;49.002;8.390;2024-03-06T02:39:43;8.50;99.90
1880;DHT22;49285;49.002;8.390;2024-03-06T02:42:09;8.50;99.90
1880;DHT22;49285;49.002;8.390;2024-03-06T02:44:34;8.50;99.90
1880;DHT22;49285;49.002;8.390;2024-03-06T02:47:00;8.40;99.90
1880;DHT22;49285;49.002;8.390;2024-03-06T02:49:25;8.40;99.90
1880;DHT22;49285;49.002;8.390;2024-03-06T02:51:51;8.40;99.90
1880;DHT22;49285;49.002;8.390;2024-03-06T02:54:17;8.40;99.90
1880;DHT22;49285;49.002;8.390;2024-03-06T02:56:42;8.40;99.90
1880;DHT22;49285;49.002;8.390;2024-03-06T02:59:08;8.50;99.90
1880;DHT22;49285;49.002;8.390;2024-03-06T03:01:34;8.50;99.90
1880;DHT22;49285;49.002;8.390;2024-03-06T03:04:00;8.40;99.90
1880;DHT22;49285;49.002;8.390;2024-03-06T03:06:25;8.40;99.90
1880;DHT22;49285;49.002;8.390;2024-03-06T03:08:51;8.40;99.90
1880;DHT22;49285;49.002;8.390;2024-03-06T03:11:16;8.50;99.90
1880;DHT22;49285;49.002;8.390;2024-03-06T03:13:42;8.40;99.90
1880;DHT22;49285;49.002;8.390;2024-03-06T03:16:18;8.50;99.90
1880;DHT22;49285;49.002;8.390;2024-03-06T03:18:44;8.40;99.90
1880;DHT22;49285;49.002;8.390;2024-03-06T03:21:10;8.30;99.90
1880;DHT22;49285;49.002;8.390;2024-03-06T03:23:36;8.40;99.90
1880;DHT22;49285;49.002;8.390;2024-03-06T03:26:03;8.30;99.90
1880;DHT22;49285;49.002;8.390;2024-03-06T03:28:29;8.30;99.90
1880;DHT22;49285;49.002;8.390;2024-03-06T03:30:55;8.20;99.90
1880;DHT22;49285;49.002;8.390;2024-03-06T03:33:22;8.20;99.90
1880;DHT22;49285;49.002;8.390;2024-03-06T03:35:48;8.20;99.90
1880;DHT22;49285;49.002;8.390;2024-03-06T03:38:13;8.20;99.90
1880;DHT22;49285;49.002;8.390;2024-03-06T03:40:39;8.10;99.90
1880;DHT22;49285;49.002;8.390;2024-03-06T03:43:05;8.10;99.90
1880;DHT22;49285;49.002;8.390;2024-03-06T03:45:34;8.10;99.90
1880;DHT22;49285;49.002;8.390;2024-03-06T03:48:01;8.10;99.90
1880;DHT22;49285;49.002;8.390;2024-03-06T03:50:28;8.10;99.90
1880;DHT22;49285;49.002;8.390;2024-03-06T03:52:55;8.20;99.90
1880;DHT22;49285;49.002;8.390;2024-03-06T03:55:20;8.20;99.90
1880;DHT22;49285;49.002;8.390;2024-03-06T03:57:46;8.20;99.90
1880;DHT22;49285;49.002;8.390;2024-03-06T04:00:13;8.20;99.90
1880;DHT22;49285;49.002;8.390;2024-03-06T04:02:39;8.20;99.90
1880;DHT22;49285;49.002;8.390;2024-03-06T04:05:05;8.20;99.90
1880;DHT22;49285;49.002;8.390;2024-03-06T04:07:30;8.10;99.90
1880;DHT22;49285;49.002;8.390;2024-03-06T04:09:56;8.00;99.90
1880;DHT22;49285;49.002;8.390;2024-03-06T04:12:21;8.00;99.90
1880;DHT22;49285;49.002;8.390;2024-03-06T04:14:47;8.00;99.90
1880;DHT22;49285;49.002;8.390;2024-03-06T04:17:12;8.10;99.90
1880;DHT22;49285;49.002;8.390;2024-03-06T04:19:38;8.10;99.90
1880;DHT22;49285;49.002;8.390;2024-03-06T04:22:04;8.10;99.90
1880;DHT22;49285;49.002;8.390;2024-03-06T04:24:29;8.10;99.90
1880;DHT22;49285;49.002;8.390;2024-03-06T04:26:56;8.10;99.90
1880;DHT22;49285;49.002;8.390;2024-03-06T04:29:21;8.00;99.90
1880;DHT22;49285;49.002;8.390;2024-03-06T04:31:47;8.10;99.90
1880;DHT22;49285;49.002;8.390;2024-03-06T04:34:12;8.00;99.90
1880;DHT22;49285;49.002;8.390;2024-03-06T04:36:38;8.00;99.90
1880;DHT22;49285;49.002;8.390;2024-03-06T04:39:03;8.00;99.90
1880;DHT22;49285;49.002;8.390;2024-03-06T04:41:33;8.00;99.90
1880;DHT22;49285;49.002;8.390;2024-03-06T04:43:59;8.00;99.90
1880;DHT22;49285;49.002;8.390;2024-03-06T04:46:26;7.90;99.90
1880;DHT22;49285;49.002;8.390;2024-03-06T04:48:52;8.00;99.90
1880;DHT22;49285;49.002;8.390;2024-03-06T04:51:17;8.00;99.90
1880;DHT22;49285;49.002;8.390;2024-03-06T04:53:45;8.10;99.90
1880;DHT22;49285;49.002;8.390;2024-03-06T04:56:11;8.10;99.90
1880;DHT22;49285;49.002;8.390;2024-03-06T04:58:36;8.00;99.90
1880;DHT22;49285;49.002;8.390;2024-03-06T05:01:02;8.10;99.90
1880;DHT22;49285;49.002;8.390;2024-03-06T05:03:29;8.10;99.90
1880;DHT22;49285;49.002;8.390;2024-03-06T05:05:54;8.10;99.90
1880;DHT22;49285;49.002;8.390;2024-03-06T05:08:20;8.10;99.90
1880;DHT22;49285;49.002;8.390;2024-03-06T05:10:46;8.10;99.90
1880;DHT22;49285;49.002;8.390;2024-03-06T05:13:12;8.10;99.90
1880;DHT22;49285;49.002;8.390;2024-03-06T05:15:37;8.10;99.90
1880;DHT22;49285;49.002;8.390;2024-03-06T05:18:05;8.10;99.90
1880;DHT22;49285;49.002;8.390;2024-03-06T05:20:30;8.10;99.90
1880;DHT22;49285;49.002;8.390;2024-03-06T05:22:56;8.10;99.90
1880;DHT22;49285;49.002;8.390;2024-03-06T05:25:22;8.10;99.90
1880;DHT22;49285;49.002;8.390;2024-03-06T05:27:48;8.10;99.90
1880;DHT22;49285;49.002;8.390;2024-03-06T05:30:13;8.10;99.90
1880;DHT22;49285;49.002;8.390;2024-03-06T05:32:40;8.10;99.90
1880;DHT22;49285;49.002;8.390;2024-03-06T05:35:07;8.20;99.90
1880;DHT22;49285;49.002;8.390;2024-03-06T05:37:35;8.20;99.90
1880;DHT22;49285;49.002;8.390;2024-03-06T05:40:01;8.20;99.90
1880;DHT22;49285;49.002;8.390;2024-03-06T05:42:30;8.20;99.90
1880;DHT22;49285;49.002;8.390;2024-03-06T05:44:57;8.30;99.90
1880;DHT22;49285;49.002;8.390;2024-03-06T05:47:26;8.30;99.90
1880;DHT22;49285;49.002;8.390;2024-03-06T05:49:52;8.40;99.90
1880;DHT22;49285;49.002;8.390;2024-03-06T05:52:17;8.30;99.90
1880;DHT22;49285;49.002;8.390;2024-03-06T05:54:43;8.30;99.90
1880;DHT22;49285;49.002;8.390;2024-03-06T05:57:09;8.30;99.90
1880;DHT22;49285;49.002;8.390;2024-03-06T05:59:34;8.20;99.90
1880;DHT22;49285;49.002;8.390;2024-03-06T06:02:00;8.30;99.90
1880;DHT22;49285;49.002;8.390;2024-03-06T06:04:25;8.30;99.90
1880;DHT22;49285;49.002;8.390;2024-03-06T06:06:51;8.20;99.90
1880;DHT22;49285;49.002;8.390;2024-03-06T06:09:17;8.30;99.90
1880;DHT22;49285;49.002;8.390;2024-03-06T06:11:43;8.30;99.90
1880;DHT22;49285;49.002;8.390;2024-03-06T06:14:09;8.20;99.90
1880;DHT22;49285;49.002;8.390;2024-03-06T06:16:38;8.20;99.90
1880;DHT22;49285;49.002;8.390;2024-03-06T06:19:06;8.20;99.90
1880;DHT22;49285;49.002;8.390;2024-03-06T06:21:32;8.20;99.90
1880;DHT22;49285;49.002;8.390;2024-03-06T06:23:58;8.20;99.90
1880;DHT22;49285;49.002;8.390;2024-03-06T06:26:24;8.30;99.90
1880;DHT22;49285;49.002;8.390;2024-03-06T06:28:49;8.30;99.90
1880;DHT22;49285;49.002;8.390;2024-03-06T06:31:15;8.40;99.90
1880;DHT22;49285;49.002;8.390;2024-03-06T06:33:41;8.40;99.90
1880;DHT22;49285;49.002;8.390;2024-03-06T06:36:07;8.40;99.90
1880;DHT22;49285;49.002;8.390;2024-03-06T06:38:32;8.30;99.90
1880;DHT22;49285;49.002;8.390;2024-03-06T06:40:58;8.40;99.90
1880;DHT22;49285;49.002;8.390;2024-03-06T06:43:24;8.40;99.90
1880;DHT22;49285;49.002;8.390;2024-03-06T06:45:49;8.30;99.90
1880;DHT22;49285;49.002;8.390;2024-03-06T06:48:16;8.30;99.90
1880;DHT22;49285;49.002;8.390;2024-03-06T06:50:41;8.30;99.90
1880;DHT22;49285;49.002;8.390;2024-03-06T06:53:07;8.30;99.90
1880;DHT22;49285;49.002;8.390;2024-03-06T06:55:33;8.30;99.90
1880;DHT22;49285;49.002;8.390;2024-03-06T06:57:58;8.30;99.90
1880;DHT22;49285;49.002;8.390;2024-03-06T07:00:24;8.30;99.90
1880;DHT22;49285;49.002;8.390;2024-03-06T07:02:50;8.30;99.90
1880;DHT22;49285;49.002;8.390;2024-03-06T07:05:16;8.30;99.90
1880;DHT22;49285;49.002;8.390;2024-03-06T07:07:42;8.30;99.90
1880;DHT22;49285;49.002;8.390;2024-03-06T07:10:08;8.30;99.90
1880;DHT22;49285;49.002;8.390;2024-03-06T07:12:34;8.40;99.90
1880;DHT22;49285;49.002;8.390;2024-03-06T07:14:59;8.50;99.90
1880;DHT22;49285;49.002;8.390;2024-03-06T07:17:25;8.60;99.90
1880;DHT22;49285;49.002;8.390;2024-03-06T07:19:51;8.50;99.90
1880;DHT22;49285;49.002;8.390;2024-03-06T07:22:18;8.50;99.90
1880;DHT22;49285;49.002;8.390;2024-03-06T07:24:44;8.50;99.90
1880;DHT22;49285;49.002;8.390;2024-03-06T07:27:10;8.50;99.90
1880;DHT22;49285;49.002;8.390;2024-03-06T07:29:36;8.50;99.90
1880;DHT22;49285;49.002;8.390;2024-03-06T07:32:02;8.60;99.90
1880;DHT22;49285;49.002;8.390;2024-03-06T07:34:28;8.50;99.90
1880;DHT22;49285;49.002;8.390;2024-03-06T07:36:53;8.50;99.90
1880;DHT22;49285;49.002;8.390;2024-03-06T07:39:19;8.50;99.90
1880;DHT22;49285;49.002;8.390;2024-03-06T07:41:45;8.50;99.90
1880;DHT22;49285;49.002;8.390;2024-03-06T07:44:10;8.60;99.90
1880;DHT22;49285;49.002;8.390;2024-03-06T07:46:36;8.60;99.90
1880;DHT22;49285;49.002;8.390;2024-03-06T07:49:02;8.70;99.90
1880;DHT22;49285;49.002;8.390;2024-03-06T07:51:29;8.80;99.90
1880;DHT22;49285;49.002;8.390;2024-03-06T07:53:55;8.90;99.90
1880;DHT22;49285;49.002;8.390;2024-03-06T07:56:25;8.90;99.90
1880;DHT22;49285;49.002;8.390;2024-03-06T07:58:51;9.00;99.90
1880;DHT22;49285;49.002;8.390;2024-03-06T08:01:17;8.90;99.90
1880;DHT22;49285;49.002;8.390;2024-03-06T08:03:43;8.90;99.90
1880;DHT22;49285;49.002;8.390;2024-03-06T08:06:09;8.90;99.90
1880;DHT22;49285;49.002;8.390;2024-03-06T08:08:36;9.00;99.90
1880;DHT22;49285;49.002;8.390;2024-03-06T08:11:04;9.00;99.90
1880;DHT22;49285;49.002;8.390;2024-03-06T08:13:30;9.00;99.90
1880;DHT22;49285;49.002;8.390;2024-03-06T08:15:55;9.00;99.90
1880;DHT22;49285;49.002;8.390;2024-03-06T08:18:21;9.10;99.90
1880;DHT22;49285;49.002;8.390;2024-03-06T08:20:46;9.10;99.90
1880;DHT22;49285;49.002;8.390;2024-03-06T08:23:12;9.10;99.90
1880;DHT22;49285;49.002;8.390;2024-03-06T08:25:38;9.10;99.90
1880;DHT22;49285;49.002;8.390;2024-03-06T08:28:04;9.10;99.90
1880;DHT22;49285;49.002;8.390;2024-03-06T08:30:31;9.10;99.90
1880;DHT22;49285;49.002;8.390;2024-03-06T08:32:56;9.30;99.90
1880;DHT22;49285;49.002;8.390;2024-03-06T08:35:22;9.30;99.90
1880;DHT22;49285;49.002;8.390;2024-03-06T08:37:49;9.30;99.90
1880;DHT22;49285;49.002;8.390;2024-03-06T08:40:16;9.20;99.90
1880;DHT22;49285;49.002;8.390;2024-03-06T08:42:49;9.10;99.90
1880;DHT22;49285;49.002;8.390;2024-03-06T08:45:16;9.20;99.90
1880;DHT22;49285;49.002;8.390;2024-03-06T08:47:45;9.30;99.90
1880;DHT22;49285;49.002;8.390;2024-03-06T08:50:11;9.40;99.90
1880;DHT22;49285;49.002;8.390;2024-03-06T08:52:38;9.40;99.90
1880;DHT22;49285;49.002;8.390;2024-03-06T08:55:04;9.60;99.90
1880;DHT22;49285;49.002;8.390;2024-03-06T08:57:31;9.60;99.90
1880;DHT22;49285;49.002;8.390;2024-03-06T08:59:57;9.60;99.90
1880;DHT22;49285;49.002;8.390;2024-03-06T09:02:23;9.60;99.90
1880;DHT22;49285;49.002;8.390;2024-03-06T09:04:49;9.60;99.90
1880;DHT22;49285;49.002;8.390;2024-03-06T09:07:17;9.60;99.90
1880;DHT22;49285;49.002;8.390;2024-03-06T09:09:42;9.70;99.90
1880;DHT22;49285;49.002;8.390;2024-03-06T09:12:09;9.80;99.90
1880;DHT22;49285;49.002;8.390;2024-03-06T09:14:40;9.90;99.90
1880;DHT22;49285;49.002;8.390;2024-03-06T09:17:09;9.90;99.90
1880;DHT22;49285;49.002;8.390;2024-03-06T09:19:35;10.00;99.90
1880;DHT22;49285;49.002;8.390;2024-03-06T09:22:00;10.10;99.90
1880;DHT22;49285;49.002;8.390;2024-03-06T09:24:26;10.20;99.90
1880;DHT22;49285;49.002;8.390;2024-03-06T09:26:53;10.30;99.90
1880;DHT22;49285;49.002;8.390;2024-03-06T09:29:19;10.40;99.90
1880;DHT22;49285;49.002;8.390;2024-03-06T09:31:45;10.30;99.90
1880;DHT22;49285;49.002;8.390;2024-03-06T09:34:11;10.20;99.90
1880;DHT22;49285;49.002;8.390;2024-03-06T09:36:42;10.10;99.90
1880;DHT22;49285;49.002;8.390;2024-03-06T09:39:14;10.20;99.90
1880;DHT22;49285;49.002;8.390;2024-03-06T09:41:46;10.30;99.90
1880;DHT22;49285;49.002;8.390;2024-03-06T09:44:13;10.40;99.90
1880;DHT22;49285;49.002;8.390;2024-03-06T09:46:43;10.60;99.90
1880;DHT22;49285;49.002;8.390;2024-03-06T09:49:13;10.50;99.90
1880;DHT22;49285;49.002;8.390;2024-03-06T09:51:43;10.50;99.90
1880;DHT22;49285;49.002;8.390;2024-03-06T09:54:11;10.50;99.90
1880;DHT22;49285;49.002;8.390;2024-03-06T09:56:38;10.50;99.90
1880;DHT22;49285;49.002;8.390;2024-03-06T09:59:04;10.60;99.90
1880;DHT22;49285;49.002;8.390;2024-03-06T10:01:31;10.60;99.90
1880;DHT22;49285;49.002;8.390;2024-03-06T10:03:57;10.80;99.90
1880;DHT22;49285;49.002;8.390;2024-03-06T10:06:22;10.80;99.90
1880;DHT22;49285;49.002;8.390;2024-03-06T10:08:48;10.80;99.90
1880;DHT22;49285;49.002;8.390;2024-03-06T10:11:15;11.00;99.90
1880;DHT22;49285;49.002;8.390;2024-03-06T10:13:42;11.00;99.90
1880;DHT22;49285;49.002;8.390;2024-03-06T10:16:08;11.00;99.90
1880;DHT22;49285;49.002;8.390;2024-03-06T10:18:35;10.90;99.90
1880;DHT22;49285;49.002;8.390;2024-03-06T10:21:01;10.80;99.90
1880;DHT22;49285;49.002;8.390;2024-03-06T10:23:27;10.80;99.90
1880;DHT22;49285;49.002;8.390;2024-03-06T10:25:55;10.90;99.90
1880;DHT22;49285;49.002;8.390;2024-03-06T10:28:22;11.00;99.90
1880;DHT22;49285;49.002;8.390;2024-03-06T10:30:49;11.00;99.90
1880;DHT22;49285;49.002;8.390;2024-03-06T10:33:16;11.00;99.90
1880;DHT22;49285;49.002;8.390;2024-03-06T10:35:46;11.10;99.90
1880;DHT22;49285;49.002;8.390;2024-03-06T10:38:13;11.10;99.90
1880;DHT22;49285;49.002;8.390;2024-03-06T10:40:41;11.10;99.90
1880;DHT22;49285;49.002;8.390;2024-03-06T10:43:08;11.00;99.90
1880;DHT22;49285;49.002;8.390;2024-03-06T10:48:18;10.80;99.90
1880;DHT22;49285;49.002;8.390;2024-03-06T10:50:45;10.80;99.90
1880;DHT22;49285;49.002;8.390;2024-03-06T10:53:13;10.80;99.90
1880;DHT22;49285;49.002;8.390;2024-03-06T10:55:39;10.80;99.90
1880;DHT22;49285;49.002;8.390;2024-03-06T10:58:06;10.80;99.90
1880;DHT22;49285;49.002;8.390;2024-03-06T11:00:39;10.70;99.90
1880;DHT22;49285;49.002;8.390;2024-03-06T11:03:06;10.80;99.90
1880;DHT22;49285;49.002;8.390;2024-03-06T11:05:38;10.90;99.90
1880;DHT22;49285;49.002;8.390;2024-03-06T11:08:11;11.00;99.90
1880;DHT22;49285;49.002;8.390;2024-03-06T11:10:38;10.90;99.90
1880;DHT22;49285;49.002;8.390;2024-03-06T11:13:20;10.90;99.90
1880;DHT22;49285;49.002;8.390;2024-03-06T11:15:47;10.90;99.90
1880;DHT22;49285;49.002;8.390;2024-03-06T11:23:29;11.00;99.90
1880;DHT22;49285;49.002;8.390;2024-03-06T11:28:26;11.00;99.90
1880;DHT22;49285;49.002;8.390;2024-03-06T11:36:23;10.80;99.90
1880;DHT22;49285;49.002;8.390;2024-03-06T11:38:59;10.80;99.90
1880;DHT22;49285;49.002;8.390;2024-03-06T11:41:27;10.90;99.90
1880;DHT22;49285;49.002;8.390;2024-03-06T11:43:54;10.90;99.90
1880;DHT22;49285;49.002;8.390;2024-03-06T11:46:21;10.90;99.90
1880;DHT22;49285;49.002;8.390;2024-03-06T11:48:56;10.90;99.90
1880;DHT22;49285;49.002;8.390;2024-03-06T11:51:23;11.00;99.90
1880;DHT22;49285;49.002;8.390;2024-03-06T11:53:52;11.00;99.90
1880;DHT22;49285;49.002;8.390;2024-03-06T11:56:19;11.00;99.90
1880;DHT22;49285;49.002;8.390;2024-03-06T11:58:46;11.00;99.90
1880;DHT22;49285;49.002;8.390;2024-03-06T12:01:12;11.10;99.90
1880;DHT22;49285;49.002;8.390;2024-03-06T12:03:38;11.10;99.90
1880;DHT22;49285;49.002;8.390;2024-03-06T12:06:04;11.00;99.90
1880;DHT22;49285;49.002;8.390;2024-03-06T12:08:30;11.00;99.90
1880;DHT22;49285;49.002;8.390;2024-03-06T12:10:55;10.90;99.90
1880;DHT22;49285;49.002;8.390;2024-03-06T12:13:24;11.00;99.90
1880;DHT22;49285;49.002;8.390;2024-03-06T12:15:50;11.00;99.90
1880;DHT22;49285;49.002;8.390;2024-03-06T12:18:17;11.00;99.90
1880;DHT22;49285;49.002;8.390;2024-03-06T12:20:44;11.10;99.90
1880;DHT22;49285;49.002;8.390;2024-03-06T12:23:19;11.10;99.90
1880;DHT22;49285;49.002;8.390;2024-03-06T12:25:47;11.20;99.90
1880;DHT22;49285;49.002;8.390;2024-03-06T12:28:12;11.20;99.90
1880;DHT22;49285;49.002;8.390;2024-03-06T12:30:42;11.30;99.90
1880;DHT22;49285;49.002;8.390;2024-03-06T12:33:09;11.40;99.90
1880;DHT22;49285;49.002;8.390;2024-03-06T12:35:37;11.30;99.90
1880;DHT22;49285;49.002;8.390;2024-03-06T12:38:13;11.30;99.90
1880;DHT22;49285;49.002;8.390;2024-03-06T12:40:39;11.30;99.90
1880;DHT22;49285;49.002;8.390;2024-03-06T12:43:05;11.40;99.90
1880;DHT22;49285;49.002;8.390;2024-03-06T12:45:31;11.50;99.90
1880;DHT22;49285;49.002;8.390;2024-03-06T12:47:56;11.60;99.90
1880;DHT22;49285;49.002;8.390;2024-03-06T12:50:22;11.70;99.90
1880;DHT22;49285;49.002;8.390;2024-03-06T12:52:49;11.90;99.90
1880;DHT22;49285;49.002;8.390;2024-03-06T12:55:14;11.90;99.90
1880;DHT22;49285;49.002;8.390;2024-03-06T12:57:40;11.90;99.90
1880;DHT22;49285;49.002;8.390;2024-03-06T13:00:06;12.00;99.90
1880;DHT22;49285;49.002;8.390;2024-03-06T13:02:44;12.00;99.90
1880;DHT22;49285;49.002;8.390;2024-03-06T13:05:10;12.00;99.90
1880;DHT22;49285;49.002;8.390;2024-03-06T13:07:35;12.00;99.90
1880;DHT22;49285;49.002;8.390;2024-03-06T13:10:02;12.00;99.90
1880;DHT22;49285;49.002;8.390;2024-03-06T13:12:28;11.90;99.90
1880;DHT22;49285;49.002;8.390;2024-03-06T13:14:53;12.10;99.90
1880;DHT22;49285;49.002;8.390;2024-03-06T13:17:19;12.20;99.90
1880;DHT22;49285;49.002;8.390;2024-03-06T13:19:45;12.10;99.90
1880;DHT22;49285;49.002;8.390;2024-03-06T13:22:11;12.20;99.90
1880;DHT22;49285;49.002;8.390;2024-03-06T13:24:36;12.20;99.90
1880;DHT22;49285;49.002;8.390;2024-03-06T13:27:03;12.30;99.90
1880;DHT22;49285;49.002;8.390;2024-03-06T13:29:29;12.30;99.90
1880;DHT22;49285;49.002;8.390;2024-03-06T13:31:55;12.20;99.90
1880;DHT22;49285;49.002;8.390;2024-03-06T13:34:20;12.30;99.90
1880;DHT22;49285;49.002;8.390;2024-03-06T13:36:46;12.30;99.90
1880;DHT22;49285;49.002;8.390;2024-03-06T13:39:11;12.30;99.90
1880;DHT22;49285;49.002;8.390;2024-03-06T13:41:37;12.30;99.90
1880;DHT22;49285;49.002;8.390;2024-03-06T13:44:03;12.30;99.90
1880;DHT22;49285;49.002;8.390;2024-03-06T13:46:28;12.20;99.90
1880;DHT22;49285;49.002;8.390;2024-03-06T13:48:54;12.10;99.90
1880;DHT22;49285;49.002;8.390;2024-03-06T13:51:19;12.10;99.90
1880;DHT22;49285;49.002;8.390;2024-03-06T13:53:45;12.10;99.90
1880;DHT22;49285;49.002;8.390;2024-03-06T13:56:11;12.00;99.90
1880;DHT22;49285;49.002;8.390;2024-03-06T13:58:37;12.00;99.90
1880;DHT22;49285;49.002;8.390;2024-03-06T14:01:04;12.10;99.90
1880;DHT22;49285;49.002;8.390;2024-03-06T14:03:30;12.10;99.90
1880;DHT22;49285;49.002;8.390;2024-03-06T14:05:59;11.90;99.90
1880;DHT22;49285;49.002;8.390;2024-03-06T14:08:24;12.00;99.90
1880;DHT22;49285;49.002;8.390;2024-03-06T14:10:51;12.00;99.90
1880;DHT22;49285;49.002;8.390;2024-03-06T14:13:17;12.00;99.90
1880;DHT22;49285;49.002;8.390;2024-03-06T14:15:42;11.90;99.90
1880;DHT22;49285;49.002;8.390;2024-03-06T14:18:08;11.90;99.90
1880;DHT22;49285;49.002;8.390;2024-03-06T14:20:34;11.90;99.90
1880;DHT22;49285;49.002;8.390;2024-03-06T14:22:59;11.90;99.90
1880;DHT22;49285;49.002;8.390;2024-03-06T14:25:25;11.80;99.90
1880;DHT22;49285;49.002;8.390;2024-03-06T14:27:51;11.80;99.90
1880;DHT22;49285;49.002;8.390;2024-03-06T14:30:16;11.70;99.90
1880;DHT22;49285;49.002;8.390;2024-03-06T14:32:44;11.60;99.90
1880;DHT22;49285;49.002;8.390;2024-03-06T14:35:10;11.60;99.90
1880;DHT22;49285;49.002;8.390;2024-03-06T14:37:35;11.70;99.90
1880;DHT22;49285;49.002;8.390;2024-03-06T14:40:01;11.60;99.90
1880;DHT22;49285;49.002;8.390;2024-03-06T14:42:27;11.60;99.90
1880;DHT22;49285;49.002;8.390;2024-03-06T14:44:52;11.60;99.90
1880;DHT22;49285;49.002;8.390;2024-03-06T14:47:18;11.60;99.90
1880;DHT22;49285;49.002;8.390;2024-03-06T14:49:44;11.60;99.90
1880;DHT22;49285;49.002;8.390;2024-03-06T14:52:11;11.40;99.90
1880;DHT22;49285;49.002;8.390;2024-03-06T14:54:38;11.50;99.90
1880;DHT22;49285;49.002;8.390;2024-03-06T14:57:03;11.40;99.90
1880;DHT22;49285;49.002;8.390;2024-03-06T14:59:31;11.30;99.90
1880;DHT22;49285;49.002;8.390;2024-03-06T15:01:56;11.10;99.90
1880;DHT22;49285;49.002;8.390;2024-03-06T15:04:22;11.10;99.90
1880;DHT22;49285;49.002;8.390;2024-03-06T15:06:47;11.10;99.90
1880;DHT22;49285;49.002;8.390;2024-03-06T15:09:13;11.00;99.90
1880;DHT22;49285;49.002;8.390;2024-03-06T15:11:41;10.90;99.90
1880;DHT22;49285;49.002;8.390;2024-03-06T15:14:07;10.90;99.90
1880;DHT22;49285;49.002;8.390;2024-03-06T15:16:34;10.90;99.90
1880;DHT22;49285;49.002;8.390;2024-03-06T15:19:00;10.90;99.90
1880;DHT22;49285;49.002;8.390;2024-03-06T15:21:29;10.80;99.90
1880;DHT22;49285;49.002;8.390;2024-03-06T15:23:54;10.80;99.90
1880;DHT22;49285;49.002;8.390;2024-03-06T15:26:20;10.70;99.90
1880;DHT22;49285;49.002;8.390;2024-03-06T15:28:45;10.70;99.90
1880;DHT22;49285;49.002;8.390;2024-03-06T15:31:11;10.80;99.90
1880;DHT22;49285;49.002;8.390;2024-03-06T15:33:36;10.80;99.90
1880;DHT22;49285;49.002;8.390;2024-03-06T15:36:03;10.80;99.90
1880;DHT22;49285;49.002;8.390;2024-03-06T15:38:29;10.70;99.90
1880;DHT22;49285;49.002;8.390;2024-03-06T15:40:54;10.70;99.90
1880;DHT22;49285;49.002;8.390;2024-03-06T15:43:20;10.50;99.90
1880;DHT22;49285;49.002;8.390;2024-03-06T15:45:46;10.50;99.90
1880;DHT22;49285;49.002;8.390;2024-03-06T15:48:11;10.50;99.90
1880;DHT22;49285;49.002;8.390;2024-03-06T15:50:43;10.40;99.90
1880;DHT22;49285;49.002;8.390;2024-03-06T15:53:09;10.40;99.90
1880;DHT22;49285;49.002;8.390;2024-03-06T15:55:35;10.40;99.90
1880;DHT22;49285;49.002;8.390;2024-03-06T15:58:04;10.40;99.90
1880;DHT22;49285;49.002;8.390;2024-03-06T16:00:31;10.30;99.90
1880;DHT22;49285;49.002;8.390;2024-03-06T16:02:57;10.40;99.90
1880;DHT22;49285;49.002;8.390;2024-03-06T16:05:24;10.40;99.90